createdAt,value
2022-12-11T00:01:58.279Z,96544.59
2022-12-11T00:06:08.106Z,96552.22
2022-12-11T00:10:10.936Z,96552.69
2022-12-11T00:14:14.318Z,96556.34
2022-12-11T00:18:17.008Z,96551.03
2022-12-11T00:22:21.039Z,96548.41
2022-12-11T00:26:24.161Z,96559.19
2022-12-11T00:30:26.809Z,96556.22
2022-12-11T00:34:29.414Z,96563.16
2022-12-11T00:38:34.242Z,96568.97
2022-12-11T00:42:36.905Z,96565.34
2022-12-11T00:46:40.080Z,96578.41
2022-12-11T00:50:42.949Z,96575.41
2022-12-11T00:54:47.548Z,96579.72
2022-12-11T00:58:50.747Z,96590.66
2022-12-11T01:02:53.475Z,96597.44
2022-12-11T01:06:56.283Z,96596.94
2022-12-11T01:11:05.549Z,96608.88
2022-12-11T01:15:09.561Z,96602.59
2022-12-11T01:19:13.021Z,96606.06
2022-12-11T01:23:16.052Z,96609.72
2022-12-11T01:27:20.548Z,96612.19
2022-12-11T01:31:23.197Z,96621.00
2022-12-11T01:35:26.121Z,96610.53
2022-12-11T01:39:29.345Z,96618.50
2022-12-11T01:43:33.518Z,96615.19
2022-12-11T01:47:36.320Z,96606.22
2022-12-11T01:51:42.774Z,96595.97
2022-12-11T01:55:47.184Z,96603.75
2022-12-11T01:59:51.219Z,96613.84
2022-12-11T02:03:56.736Z,96611.81
2022-12-11T02:08:03.017Z,96615.16
2022-12-11T02:12:16.452Z,96618.94
2022-12-11T02:16:30.049Z,96624.72
2022-12-11T02:20:38.324Z,96618.75
2022-12-11T02:24:54.242Z,96618.75
2022-12-11T02:29:00.723Z,96612.09
2022-12-11T02:33:03.611Z,96608.78
2022-12-11T02:37:10.577Z,96611.88
2022-12-11T02:41:13.627Z,96600.59
2022-12-11T02:45:20.296Z,96602.59
2022-12-11T02:49:25.455Z,96599.41
2022-12-11T02:53:33.733Z,96596.94
2022-12-11T02:57:43.196Z,96605.03
2022-12-11T03:01:47.676Z,96590.75
2022-12-11T03:05:50.567Z,96590.41
2022-12-11T03:09:53.316Z,96594.34
2022-12-11T03:13:56.318Z,96600.59
2022-12-11T03:18:04.909Z,96600.88
2022-12-11T03:22:11.724Z,96600.16
2022-12-11T03:26:17.638Z,96592.44
2022-12-11T03:30:23.354Z,96599.72
2022-12-11T03:34:32.461Z,96606.44
2022-12-11T03:38:41.088Z,96615.75
2022-12-11T03:42:46.181Z,96611.75
2022-12-11T03:46:51.526Z,96611.44
2022-12-11T03:50:56.272Z,96625.91
2022-12-11T03:55:02.139Z,96619.56
2022-12-11T03:59:04.804Z,96613.88
2022-12-11T04:03:17.847Z,96607.91
2022-12-11T04:07:21.993Z,96612.91
2022-12-11T04:11:38.531Z,96613.34
2022-12-11T04:15:41.714Z,96610.47
2022-12-11T04:20:02.064Z,96619.84
2022-12-11T04:24:18.690Z,96617.66
2022-12-11T04:28:21.370Z,96617.13
2022-12-11T04:32:24.021Z,96617.13
2022-12-11T04:36:26.750Z,96615.78
2022-12-11T04:40:31.062Z,96610.47
2022-12-11T04:44:34.908Z,96617.06
2022-12-11T04:48:38.275Z,96613.13
2022-12-11T04:52:41.001Z,96608.13
2022-12-11T04:56:44.999Z,96618.56
2022-12-11T05:00:48.031Z,96613.41
2022-12-11T05:04:50.727Z,96607.84
2022-12-11T05:08:53.486Z,96616.38
2022-12-11T05:12:57.557Z,96608.97
2022-12-11T05:17:00.706Z,96600.19
2022-12-11T05:21:06.190Z,96599.22
2022-12-11T05:25:09.626Z,96614.63
2022-12-11T05:29:13.901Z,96604.06
2022-12-11T05:33:16.556Z,96603.09
2022-12-11T05:37:19.937Z,96603.38
2022-12-11T05:41:24.345Z,96603.69
2022-12-11T05:45:28.369Z,96609.25
2022-12-11T05:49:31.337Z,96608.72
2022-12-11T05:53:34.409Z,96598.97
2022-12-11T05:57:37.035Z,96595.81
2022-12-11T06:01:43.105Z,96607.22
2022-12-11T06:05:45.860Z,96601.41
2022-12-11T06:09:48.495Z,96594.16
2022-12-11T06:13:51.464Z,96592.78
2022-12-11T06:17:57.951Z,96601.00
2022-12-11T06:22:01.142Z,96603.41
2022-12-11T06:26:04.777Z,96598.59
2022-12-11T06:30:08.949Z,96600.78
2022-12-11T06:34:14.225Z,96589.66
2022-12-11T06:38:17.391Z,96598.59
2022-12-11T06:42:20.116Z,96597.31
2022-12-11T06:46:22.879Z,96603.88
2022-12-11T06:50:27.151Z,96609.00
2022-12-11T06:54:29.828Z,96613.78
2022-12-11T06:58:32.714Z,96612.53
2022-12-11T07:02:35.562Z,96616.75
2022-12-11T07:06:39.662Z,96623.53
2022-12-11T07:10:42.412Z,96620.91
2022-12-11T07:14:45.568Z,96621.44
2022-12-11T07:18:51.399Z,96619.47
2022-12-11T07:22:56.031Z,96624.63
2022-12-11T07:26:58.704Z,96624.03
2022-12-11T07:31:01.427Z,96625.25
2022-12-11T07:35:04.291Z,96622.31
2022-12-11T07:39:09.081Z,96620.03
2022-12-11T07:43:11.765Z,96613.66
2022-12-11T07:47:14.446Z,96615.16
2022-12-11T07:51:19.747Z,96631.56
2022-12-11T07:55:23.767Z,96627.56
2022-12-11T07:59:26.454Z,96630.34
2022-12-11T08:03:29.183Z,96636.03
2022-12-11T08:07:31.811Z,96641.66
2022-12-11T08:11:36.233Z,96640.63
2022-12-11T08:15:39.122Z,96651.22
2022-12-11T08:19:41.988Z,96639.84
2022-12-11T08:23:45.584Z,96640.34
2022-12-11T08:27:49.609Z,96645.66
2022-12-11T08:31:52.371Z,96641.69
2022-12-11T08:35:55.055Z,96645.28
2022-12-11T08:39:57.740Z,96636.78
2022-12-11T08:44:01.878Z,96644.66
2022-12-11T08:48:04.865Z,96641.75
2022-12-11T08:52:07.912Z,96643.94
2022-12-11T08:56:12.632Z,96646.03
2022-12-11T09:00:18.520Z,96651.63
2022-12-11T09:04:21.497Z,96649.88
2022-12-11T09:08:24.176Z,96647.19
2022-12-11T09:12:27.533Z,96648.47
2022-12-11T09:16:31.791Z,96654.38
2022-12-11T09:20:34.443Z,96648.00
2022-12-11T09:24:37.212Z,96656.63
2022-12-11T09:28:44.444Z,96652.38
2022-12-11T09:32:50.205Z,96653.97
2022-12-11T09:36:52.976Z,96648.16
2022-12-11T09:40:56.195Z,96651.63
2022-12-11T09:45:01.173Z,96650.41
2022-12-11T09:49:10.452Z,96641.03
2022-12-11T09:53:17.096Z,96645.19
2022-12-11T09:57:32.801Z,96636.28
2022-12-11T10:01:45.148Z,96622.91
2022-12-11T10:06:02.684Z,96624.25
2022-12-11T10:10:20.285Z,96606.97
2022-12-11T10:14:29.950Z,96619.31
2022-12-11T10:18:34.139Z,96614.19
2022-12-11T10:22:38.405Z,96610.03
2022-12-11T10:26:41.109Z,96611.75
2022-12-11T10:30:49.590Z,96610.78
2022-12-11T10:34:58.964Z,96597.16
2022-12-11T10:39:03.562Z,96586.38
2022-12-11T10:43:06.216Z,96574.19
2022-12-11T10:47:13.753Z,96570.28
2022-12-11T10:51:16.979Z,96576.44
2022-12-11T10:55:25.585Z,96574.22
2022-12-11T10:59:35.265Z,96567.00
2022-12-11T11:03:45.002Z,96564.47
2022-12-11T11:07:47.750Z,96557.38
2022-12-11T11:11:52.069Z,96553.03
2022-12-11T11:16:01.444Z,96550.09
2022-12-11T11:20:14.199Z,96555.03
2022-12-11T11:24:27.140Z,96538.78
2022-12-11T11:28:34.844Z,96527.16
2022-12-11T11:32:39.972Z,96527.56
2022-12-11T11:36:42.585Z,96533.81
2022-12-11T11:40:51.062Z,96523.81
2022-12-11T11:45:04.100Z,96521.34
2022-12-11T11:49:14.065Z,96525.13
2022-12-11T11:53:23.500Z,96527.13
2022-12-11T11:57:42.466Z,96521.94
2022-12-11T12:01:46.560Z,96518.66
2022-12-11T12:05:56.518Z,96527.66
2022-12-11T12:10:10.949Z,96505.06
2022-12-11T12:14:50.705Z,96500.66
2022-12-11T12:18:50.084Z,96493.53
2022-12-11T12:23:00.370Z,96486.56
2022-12-11T12:27:43.324Z,96489.72
2022-12-11T12:31:56.158Z,96495.63
2022-12-11T12:36:07.442Z,96487.31
2022-12-11T12:40:16.813Z,96500.78
2022-12-11T12:44:21.265Z,96505.06
2022-12-11T12:48:26.120Z,96496.44
2022-12-11T12:52:32.945Z,96482.72
2022-12-11T12:56:38.037Z,96480.75
2022-12-11T13:00:42.618Z,96479.09
2022-12-11T13:04:56.909Z,96472.50
2022-12-11T13:09:13.495Z,96464.94
2022-12-11T13:13:34.639Z,96479.31
2022-12-11T13:17:39.005Z,96483.22
2022-12-11T13:21:41.718Z,96488.34
2022-12-11T13:25:52.983Z,96475.53
2022-12-11T13:30:07.668Z,96480.19
2022-12-11T13:34:17.842Z,96473.72
2022-12-11T13:38:23.416Z,96485.09
2022-12-11T13:42:32.642Z,96484.63
2022-12-11T13:46:38.312Z,96497.13
2022-12-11T13:50:44.805Z,96492.28
2022-12-11T13:54:50.939Z,96496.56
2022-12-11T13:58:54.985Z,96498.44
2022-12-11T14:03:00.620Z,96497.44
2022-12-11T14:07:07.768Z,96500.56
2022-12-11T14:11:19.829Z,96499.16
2022-12-11T14:15:24.279Z,96508.38
2022-12-11T14:19:26.979Z,96502.06
2022-12-11T14:23:32.401Z,96501.59
2022-12-11T14:27:35.067Z,96494.31
2022-12-11T14:31:43.536Z,96504.91
2022-12-11T14:35:47.439Z,96506.38
2022-12-11T14:39:57.969Z,96493.41
2022-12-11T14:44:03.829Z,96503.88
2022-12-11T14:48:14.837Z,96511.81
2022-12-11T14:52:20.953Z,96513.31
2022-12-11T14:56:26.991Z,96519.09
2022-12-11T15:00:32.285Z,96503.50
2022-12-11T15:04:36.355Z,96509.63
2022-12-11T15:08:39.086Z,96507.28
2022-12-11T15:12:45.872Z,96504.63
2022-12-11T15:16:50.433Z,96511.56
2022-12-11T15:20:57.467Z,96508.25
2022-12-11T15:25:01.059Z,96488.59
2022-12-11T15:29:07.193Z,96484.59
2022-12-11T15:33:22.105Z,96489.38
2022-12-11T15:37:27.965Z,96494.00
2022-12-11T15:41:33.294Z,96495.75
2022-12-11T15:45:36.906Z,96506.81
2022-12-11T15:49:39.552Z,96504.97
2022-12-11T15:53:43.660Z,96517.91
2022-12-11T15:57:48.871Z,96518.81
2022-12-11T16:01:51.741Z,96516.84
2022-12-11T16:05:54.675Z,96517.00
2022-12-11T16:09:58.723Z,96517.81
2022-12-11T16:14:04.229Z,96521.97
2022-12-11T16:18:08.956Z,96540.56
2022-12-11T16:22:13.017Z,96539.94
2022-12-11T16:26:17.069Z,96538.41
2022-12-11T16:30:19.811Z,96532.56
2022-12-11T16:34:26.461Z,96531.06
2022-12-11T16:38:29.158Z,96541.63
2022-12-11T16:42:33.257Z,96529.69
2022-12-11T16:46:36.082Z,96540.00
2022-12-11T16:50:40.916Z,96526.22
2022-12-11T16:54:43.564Z,96536.97
2022-12-11T16:58:49.284Z,96533.78
2022-12-11T17:02:52.059Z,96538.41
2022-12-11T17:06:54.801Z,96537.44
2022-12-11T17:10:57.482Z,96541.06
2022-12-11T17:15:01.540Z,96546.00
2022-12-11T17:19:07.178Z,96554.22
2022-12-11T17:23:10.645Z,96543.75
2022-12-11T17:27:13.654Z,96560.63
2022-12-11T17:31:19.268Z,96554.94
2022-12-11T17:35:22.163Z,96553.59
2022-12-11T17:39:24.941Z,96556.03
2022-12-11T17:43:27.684Z,96560.63
2022-12-11T17:47:31.793Z,96556.25
2022-12-11T17:51:34.428Z,96571.28
2022-12-11T17:55:42.787Z,96559.50
2022-12-11T17:59:46.070Z,96569.53
2022-12-11T18:03:50.105Z,96574.44
2022-12-11T18:07:57.467Z,96571.25
2022-12-11T18:12:00.724Z,96578.34
2022-12-11T18:16:05.723Z,96580.31
2022-12-11T18:20:14.493Z,96573.53
2022-12-11T18:24:17.375Z,96574.63
2022-12-11T18:28:20.438Z,96572.84
2022-12-11T18:32:23.100Z,96571.47
2022-12-11T18:36:27.207Z,96575.91
2022-12-11T18:40:29.962Z,96580.00
2022-12-11T18:44:32.661Z,96578.34
2022-12-11T18:48:36.139Z,96575.00
2022-12-11T18:52:40.174Z,96574.78
2022-12-11T18:56:42.818Z,96568.97
2022-12-11T19:00:46.096Z,96573.16
2022-12-11T19:04:49.113Z,96579.56
2022-12-11T19:08:53.596Z,96591.09
2022-12-11T19:12:56.289Z,96591.69
2022-12-11T19:16:58.980Z,96591.47
2022-12-11T19:21:08.491Z,96592.56
2022-12-11T19:25:13.885Z,96587.03
2022-12-11T19:29:21.268Z,96583.72
2022-12-11T19:33:23.980Z,96587.19
2022-12-11T19:37:26.661Z,96585.38
2022-12-11T19:41:32.097Z,96589.53
2022-12-11T19:45:34.800Z,96586.22
2022-12-11T19:49:37.550Z,96592.03
2022-12-11T19:53:41.332Z,96594.28
2022-12-11T19:57:45.444Z,96603.72
2022-12-11T20:01:48.932Z,96604.16
2022-12-11T20:05:51.744Z,96605.97
2022-12-11T20:09:54.428Z,96597.91
2022-12-11T20:13:58.524Z,96596.72
2022-12-11T20:18:02.535Z,96601.00
2022-12-11T20:22:05.610Z,96605.88
2022-12-11T20:26:09.321Z,96610.31
2022-12-11T20:30:14.623Z,96612.13
2022-12-11T20:34:17.478Z,96609.38
2022-12-11T20:38:21.067Z,96605.38
2022-12-11T20:42:23.793Z,96608.00
2022-12-11T20:46:28.873Z,96596.91
2022-12-11T20:50:31.529Z,96599.41
2022-12-11T20:54:34.481Z,96591.50
2022-12-11T20:58:37.645Z,96601.88
2022-12-11T21:02:41.669Z,96587.03
2022-12-11T21:06:44.494Z,96586.91
2022-12-11T21:10:47.499Z,96580.75
2022-12-11T21:14:50.199Z,96582.31
2022-12-11T21:18:55.323Z,96577.56
2022-12-11T21:22:58.095Z,96583.69
2022-12-11T21:27:00.815Z,96577.97
2022-12-11T21:31:05.731Z,96580.47
2022-12-11T21:35:10.834Z,96583.50
2022-12-11T21:39:14.593Z,96584.03
2022-12-11T21:43:17.267Z,96584.72
2022-12-11T21:47:20.080Z,96580.28
2022-12-11T21:51:31.080Z,96574.84
2022-12-11T21:55:41.339Z,96572.19
2022-12-11T21:59:43.967Z,96572.06
2022-12-11T22:03:47.056Z,96570.97
2022-12-11T22:07:51.103Z,96574.13
2022-12-11T22:11:58.367Z,96571.06
2022-12-11T22:16:01.554Z,96575.50
2022-12-11T22:20:05.174Z,96578.84
2022-12-11T22:24:09.415Z,96576.34
2022-12-11T22:28:12.113Z,96576.19
2022-12-11T22:32:14.748Z,96573.69
2022-12-11T22:36:18.934Z,96579.53
2022-12-11T22:40:23.099Z,96570.63
2022-12-11T22:44:25.776Z,96572.84
2022-12-11T22:48:28.399Z,96569.38
2022-12-11T22:52:31.111Z,96570.75
2022-12-11T22:56:35.093Z,96580.50
2022-12-11T23:00:37.768Z,96585.63
2022-12-11T23:04:40.395Z,96585.78
2022-12-11T23:08:43.896Z,96582.69
2022-12-11T23:12:48.036Z,96588.81
2022-12-11T23:16:51.019Z,96578.53
2022-12-11T23:20:53.687Z,96586.31
2022-12-11T23:24:56.312Z,96582.91
2022-12-11T23:29:00.943Z,96592.22
2022-12-11T23:33:03.584Z,96591.81
2022-12-11T23:37:06.242Z,96596.28
2022-12-11T23:41:10.287Z,96583.34
2022-12-11T23:45:14.712Z,96589.47
2022-12-11T23:49:17.594Z,96598.09
2022-12-11T23:53:20.261Z,96601.09
2022-12-11T23:57:23.176Z,96602.78
